Time;durP1;ratioP1;P1;durP2;ratioP2;P2;SDS_P1;SDS_P2;PMS_P1;PMS_P2;Temp;Humidity;BMP_temperature;BMP_pressure;BME280_temperature;BME280_humidity;BME280_pressure;Samples;Min_cycle;Max_cycle;Signal;HPM_P1;HPM_P2
2022/08/02 00:00:11;;;;;;;2.28;1.98;;;;;;;12.71;100.00;93454.56;2133913;27;20157;-73
2022/08/02 00:01:12;;;;;;;2.03;1.83;;;;;;;12.78;100.00;93462.47;2134739;27;20031;-73
2022/08/02 00:02:13;;;;;;;2.83;2.15;;;;;;;12.67;100.00;93462.69;2135887;27;20034;-72
2022/08/02 00:03:14;;;;;;;3.97;2.00;;;;;;;12.62;100.00;93455.16;2137192;27;20048;-72
2022/08/02 00:04:16;;;;;;;4.13;2.10;;;;;;;12.57;100.00;93461.03;2134719;27;20038;-73
2022/08/02 00:05:17;;;;;;;2.88;2.10;;;;;;;12.69;100.00;93463.06;2133630;27;20038;-73
2022/08/02 00:06:19;;;;;;;2.85;1.98;;;;;;;12.60;100.00;93455.59;2135290;27;20461;-73
2022/08/02 00:07:20;;;;;;;2.22;2.03;;;;;;;12.60;100.00;93450.22;2124080;27;20056;-72
2022/08/02 00:08:21;;;;;;;2.45;2.08;;;;;;;12.67;100.00;93456.59;2126204;27;20064;-72
2022/08/02 00:09:22;;;;;;;11.80;1.83;;;;;;;12.74;100.00;93453.75;2134244;27;20044;-73
2022/08/02 00:10:24;;;;;;;3.53;2.05;;;;;;;12.74;100.00;93462.53;2135869;27;20050;-73
2022/08/02 00:11:25;;;;;;;2.35;2.05;;;;;;;12.85;100.00;93457.66;2134752;27;20376;-73
2022/08/02 00:12:26;;;;;;;2.63;2.20;;;;;;;12.87;100.00;93454.56;2134960;27;20038;-73
2022/08/02 00:13:27;;;;;;;2.88;2.00;;;;;;;12.81;100.00;93456.22;2134493;27;20445;-72
2022/08/02 00:14:28;;;;;;;2.63;2.15;;;;;;;12.87;100.00;93459.94;2134831;27;20120;-72
2022/08/02 00:15:29;;;;;;;6.20;2.22;;;;;;;12.80;100.00;93460.84;2133515;27;20026;-72
2022/08/02 00:16:30;;;;;;;2.92;1.83;;;;;;;12.88;100.00;93458.75;2135460;27;20034;-73
2022/08/02 00:17:31;;;;;;;3.78;2.30;;;;;;;12.84;100.00;93461.50;2133259;27;20114;-72
2022/08/02 00:18:32;;;;;;;3.45;2.10;;;;;;;12.91;100.00;93459.84;2134292;27;20038;-73
2022/08/02 00:19:34;;;;;;;3.13;2.45;;;;;;;12.92;100.00;93458.66;2134714;27;20110;-73
2022/08/02 00:20:35;;;;;;;2.50;2.05;;;;;;;12.83;100.00;93451.97;2135579;27;20117;-72
2022/08/02 00:21:36;;;;;;;3.63;2.00;;;;;;;12.88;100.00;93452.63;2134728;27;20034;-72
2022/08/02 00:22:37;;;;;;;3.75;2.00;;;;;;;12.91;100.00;93451.78;2134984;27;20104;-72
2022/08/02 00:23:38;;;;;;;2.95;2.45;;;;;;;12.91;100.00;93444.50;2133397;27;20113;-73
2022/08/02 00:24:39;;;;;;;2.40;2.17;;;;;;;12.92;100.00;93448.69;2135061;27;20049;-73
2022/08/02 00:25:40;;;;;;;4.43;2.40;;;;;;;12.89;100.00;93443.41;2134000;27;20467;-72
2022/08/02 00:26:41;;;;;;;3.83;2.50;;;;;;;12.95;100.00;93442.47;2134028;27;20023;-73
2022/08/02 00:27:42;;;;;;;2.33;2.00;;;;;;;12.93;100.00;93444.06;2135249;27;20353;-73
2022/08/02 00:28:43;;;;;;;3.55;2.45;;;;;;;12.93;100.00;93444.81;2135148;27;20657;-73
2022/08/02 00:29:44;;;;;;;2.70;2.00;;;;;;;12.94;100.00;93440.94;2134275;27;20080;-73
2022/08/02 00:30:45;;;;;;;4.80;2.20;;;;;;;13.01;100.00;93440.03;2134816;27;20038;-73
2022/08/02 00:31:46;;;;;;;3.30;2.20;;;;;;;13.04;100.00;93436.50;2135252;27;20022;-73
2022/08/02 00:32:47;;;;;;;2.28;1.85;;;;;;;13.07;100.00;93432.97;2134982;27;20022;-72
2022/08/02 00:33:48;;;;;;;2.67;1.90;;;;;;;13.06;100.00;93431.47;2135401;27;20049;-73
2022/08/02 00:34:50;;;;;;;2.47;2.03;;;;;;;12.98;100.00;93432.81;2134673;27;20175;-74
2022/08/02 00:35:51;;;;;;;3.30;2.00;;;;;;;12.91;100.00;93431.09;2134103;27;20372;-73
2022/08/02 00:36:52;;;;;;;2.85;2.10;;;;;;;12.83;100.00;93427.06;2134156;27;20049;-73
2022/08/02 00:37:54;;;;;;;7.63;2.03;;;;;;;12.79;100.00;93426.41;2134730;27;20430;-73
2022/08/02 00:38:54;;;;;;;2.22;2.00;;;;;;;12.79;100.00;93429.84;2134975;27;20039;-73
2022/08/02 00:39:56;;;;;;;3.10;1.95;;;;;;;12.88;100.00;93425.81;2125446;27;20126;-73
2022/08/02 00:40:57;;;;;;;2.05;1.80;;;;;;;12.82;100.00;93420.19;2125444;27;20529;-73
2022/08/02 00:41:58;;;;;;;3.30;2.03;;;;;;;12.78;100.00;93422.22;2125986;27;20072;-72
2022/08/02 00:43:09;;;;;;;2.65;2.45;;;;;;;12.72;100.00;93419.28;2133328;27;20057;-73
2022/08/02 00:44:10;;;;;;;8.02;2.45;;;;;;;12.66;100.00;93426.34;2135064;27;20034;-73
2022/08/02 00:45:11;;;;;;;3.85;1.92;;;;;;;12.76;100.00;93419.19;2132986;27;20031;-72
2022/08/02 00:46:13;;;;;;;3.75;2.20;;;;;;;12.82;100.00;93420.19;2134454;27;20118;-72
2022/08/02 00:47:14;;;;;;;2.55;2.35;;;;;;;12.80;100.00;93423.28;2135125;27;20037;-73
2022/08/02 00:48:15;;;;;;;4.97;2.00;;;;;;;12.85;100.00;93413.97;2134051;27;20046;-72
2022/08/02 00:49:16;;;;;;;3.40;2.00;;;;;;;12.78;100.00;93419.53;2134778;27;20027;-73
2022/08/02 00:50:17;;;;;;;2.58;2.15;;;;;;;12.73;100.00;93422.69;2134781;27;20035;-73
2022/08/02 00:51:18;;;;;;;2.30;1.90;;;;;;;12.70;100.00;93418.19;2133830;27;20110;-73
2022/08/02 00:52:19;;;;;;;3.30;1.95;;;;;;;12.60;100.00;93418.06;2133645;27;20057;-72
2022/08/02 00:53:20;;;;;;;3.88;2.10;;;;;;;12.66;100.00;93420.22;2135311;27;20045;-73
2022/08/02 00:54:22;;;;;;;2.58;2.22;;;;;;;12.63;100.00;93421.06;2133793;27;20094;-73
2022/08/02 00:55:23;;;;;;;4.32;1.92;;;;;;;12.59;100.00;93421.13;2134211;27;20045;-72
2022/08/02 00:56:24;;;;;;;2.55;2.13;;;;;;;12.59;100.00;93413.09;2134589;27;20421;-73
2022/08/02 00:57:24;;;;;;;2.10;1.95;;;;;;;12.64;100.00;93412.56;2134924;27;20030;-73
2022/08/02 00:58:26;;;;;;;3.75;1.98;;;;;;;12.48;100.00;93410.69;2133792;27;20113;-73
2022/08/02 00:59:27;;;;;;;2.10;1.92;;;;;;;12.33;100.00;93415.59;2135880;27;20032;-73
2022/08/02 01:00:28;;;;;;;2.05;1.83;;;;;;;12.32;100.00;93408.75;2133283;27;20014;-73
2022/08/02 01:01:38;;;;;;;2.17;1.83;;;;;;;12.28;100.00;93418.03;2135138;27;20405;-72
2022/08/02 01:02:39;;;;;;;;;;;;;;;12.33;100.00;93414.84;2133895;27;20038;-72
2022/08/02 01:03:40;;;;;;;2.45;1.50;;;;;;;12.30;100.00;93413.03;2135272;27;19902;-72
2022/08/02 01:04:41;;;;;;;1.73;1.63;;;;;;;12.40;100.00;93405.91;2132836;27;20372;-72
2022/08/02 01:05:43;;;;;;;3.80;1.77;;;;;;;12.36;100.00;93400.63;2134751;27;20026;-73
2022/08/02 01:06:44;;;;;;;2.72;1.52;;;;;;;12.36;100.00;93397.94;2133843;27;20024;-72
2022/08/02 01:07:45;;;;;;;2.15;1.80;;;;;;;12.42;100.00;93398.19;2134243;27;21391;-72
2022/08/02 01:08:46;;;;;;;3.88;1.90;;;;;;;12.45;100.00;93395.44;2133929;27;20034;-72
2022/08/02 01:09:46;;;;;;;2.50;2.10;;;;;;;12.41;100.00;93392.06;2134740;27;20029;-73
2022/08/02 01:10:47;;;;;;;2.00;1.90;;;;;;;12.37;100.00;93396.75;2133596;27;20057;-72
2022/08/02 01:11:48;;;;;;;1.77;1.67;;;;;;;12.39;100.00;93396.38;2134607;27;20018;-73
2022/08/02 01:12:49;;;;;;;2.13;1.83;;;;;;;12.32;100.00;93397.28;2134772;27;20026;-73
2022/08/02 01:13:50;;;;;;;3.47;1.90;;;;;;;12.34;100.00;93394.94;2124681;27;20900;-72
2022/08/02 01:14:54;;;;;;;1.63;1.52;;;;;;;12.19;100.00;93399.88;2125631;27;20023;-72
2022/08/02 01:16:05;;;;;;;2.55;1.70;;;;;;;12.20;100.00;93400.63;2133416;27;20057;-72
2022/08/02 01:17:17;;;;;;;2.10;1.83;;;;;;;12.21;100.00;93397.53;2133571;27;20376;-73
2022/08/02 01:18:26;;;;;;;3.72;1.63;;;;;;;12.17;100.00;93390.75;2134537;27;20080;-72
2022/08/02 01:19:53;;;;;;;2.03;1.80;;;;;;;12.30;100.00;93405.00;2133831;27;20452;-72
2022/08/02 01:21:16;;;;;;;3.58;1.63;;;;;;;12.21;100.00;93402.16;2134066;27;20086;-72
2022/08/02 01:22:32;;;;;;;1.77;1.60;;;;;;;12.31;100.00;93401.88;2134148;27;20018;-73
2022/08/02 01:24:04;;;;;;;1.75;1.65;;;;;;;12.27;100.00;93403.13;2134302;27;20421;-73
2022/08/02 01:25:31;;;;;;;2.08;1.80;;;;;;;12.36;100.00;93403.31;2134507;27;20019;-73
2022/08/02 01:26:45;;;;;;;3.35;2.05;;;;;;;12.30;100.00;93403.06;2124462;27;20417;-73
2022/08/02 01:28:24;;;;;;;1.95;1.80;;;;;;;12.22;100.00;93395.59;2125874;27;20080;-74
2022/08/02 01:29:29;;;;;;;2.80;1.80;;;;;;;12.20;100.00;93403.31;2134150;27;20497;-73
2022/08/02 01:30:33;;;;;;;2.20;1.63;;;;;;;12.14;100.00;93404.97;2134370;27;20037;-73
2022/08/02 01:31:45;;;;;;;7.05;2.63;;;;;;;12.23;100.00;93399.78;2133845;27;20061;-73
2022/08/02 01:32:52;;;;;;;3.53;2.05;;;;;;;12.08;100.00;93404.72;2133152;27;20109;-73
2022/08/02 01:34:15;;;;;;;2.00;1.80;;;;;;;12.17;100.00;93404.16;2133609;27;20081;-73
2022/08/02 01:35:23;;;;;;;1.70;1.60;;;;;;;12.13;100.00;93401.56;2134171;27;20111;-74
2022/08/02 01:36:30;;;;;;;3.15;1.60;;;;;;;12.06;100.00;93402.44;2133397;27;20108;-73
2022/08/02 01:37:39;;;;;;;2.08;1.88;;;;;;;12.06;100.00;93401.69;2133771;27;20037;-73
2022/08/02 01:38:47;;;;;;;1.88;1.65;;;;;;;12.13;100.00;93400.81;2133091;27;20142;-73
2022/08/02 01:39:53;;;;;;;2.10;1.90;;;;;;;12.10;100.00;93391.66;2134202;27;20038;-73
2022/08/02 01:40:57;;;;;;;2.58;2.08;;;;;;;12.17;100.00;93398.78;2134325;27;20034;-73
2022/08/02 01:42:00;;;;;;;2.83;1.90;;;;;;;12.14;100.00;93403.06;2134267;27;20019;-73
2022/08/02 01:43:02;;;;;;;3.25;2.45;;;;;;;12.20;100.00;93400.63;2132935;27;20030;-73
2022/08/02 01:44:05;;;;;;;2.13;1.98;;;;;;;12.28;100.00;93402.72;2134685;27;20030;-73
2022/08/02 01:45:10;;;;;;;3.35;2.22;;;;;;;12.28;100.00;93407.31;2124116;27;20059;-73
2022/08/02 01:46:13;;;;;;;1.67;1.58;;;;;;;12.24;100.00;93410.09;2124434;27;20062;-73
2022/08/02 01:47:18;;;;;;;3.53;1.90;;;;;;;12.22;100.00;93398.28;2133736;27;20042;-73
2022/08/02 01:48:20;;;;;;;4.93;1.98;;;;;;;12.05;100.00;93400.94;2133422;27;20035;-73
2022/08/02 01:49:25;;;;;;;1.88;1.70;;;;;;;12.07;100.00;93403.97;2125213;27;20031;-73
2022/08/02 01:50:30;;;;;;;3.22;1.98;;;;;;;12.05;100.00;93400.94;2126116;27;20047;-73
2022/08/02 01:52:57;;;;;;;2.25;2.03;;;;;;;11.95;100.00;93406.56;2134412;27;20145;-73
2022/08/02 01:53:58;;;;;;;3.13;1.98;;;;;;;11.92;100.00;93396.66;2133668;27;20431;-73
2022/08/02 01:55:05;;;;;;;2.00;1.83;;;;;;;12.05;100.00;93406.31;2133193;27;20361;-74
2022/08/02 01:56:07;;;;;;;8.43;2.08;;;;;;;12.01;100.00;93408.31;2124560;27;20117;-73
2022/08/02 01:57:11;;;;;;;4.22;2.08;;;;;;;12.09;100.00;93390.91;2124433;27;20533;-73
2022/08/02 01:58:16;;;;;;;13.77;2.63;;;;;;;12.13;100.00;93398.88;2134938;27;20030;-73
2022/08/02 01:59:21;;;;;;;3.95;2.35;;;;;;;12.12;100.00;93397.38;2133392;27;20402;-74
2022/08/02 02:00:25;;;;;;;5.40;2.05;;;;;;;12.20;100.00;93387.97;2133664;27;20434;-74
2022/08/02 02:01:26;;;;;;;3.63;1.92;;;;;;;12.17;100.00;93396.88;2133829;27;20026;-73
2022/08/02 02:02:29;;;;;;;2.92;2.35;;;;;;;12.13;100.00;93395.44;2133936;27;20033;-77
2022/08/02 02:03:33;;;;;;;3.67;2.08;;;;;;;12.07;100.00;93390.59;2133286;27;20084;-73
2022/08/02 02:04:36;;;;;;;2.10;1.90;;;;;;;12.08;100.00;93389.41;2134103;27;20022;-72
2022/08/02 02:05:38;;;;;;;2.83;2.10;;;;;;;12.10;100.00;93388.97;2133503;27;20109;-73
2022/08/02 02:06:41;;;;;;;1.75;1.65;;;;;;;12.09;100.00;93392.84;2125248;27;20050;-73
2022/08/02 02:07:44;;;;;;;2.85;2.20;;;;;;;12.06;100.00;93388.31;2124123;27;20056;-73
2022/08/02 02:08:48;;;;;;;2.10;1.90;;;;;;;11.94;100.00;93388.97;2124356;27;20460;-73
2022/08/02 02:09:51;;;;;;;2.20;2.00;;;;;;;11.86;100.00;93391.06;2124663;27;20117;-72
2022/08/02 02:10:54;;;;;;;3.78;2.00;;;;;;;11.92;100.00;93392.06;2133004;27;20098;-72
2022/08/02 02:11:58;;;;;;;4.50;1.77;;;;;;;11.93;100.00;93390.13;2134585;27;20069;-72
2022/08/02 02:14:43;;;;;;;;;;;;;;;11.94;100.00;93389.75;2138822;27;20551;-71
2022/08/02 02:15:47;;;;;;;6.65;1.77;;;;;;;11.93;100.00;93390.13;2137451;27;19910;-71
2022/08/02 02:16:48;;;;;;;4.25;2.22;;;;;;;11.90;100.00;93388.31;2137174;27;20057;-72
2022/08/02 02:17:51;;;;;;;4.28;1.70;;;;;;;11.76;100.00;93390.06;2137492;27;20054;-72
2022/08/02 02:18:53;;;;;;;3.92;2.15;;;;;;;11.80;100.00;93381.97;2137544;27;20037;-71
2022/08/02 02:19:56;;;;;;;2.67;1.67;;;;;;;11.85;100.00;93386.84;2137659;27;20026;-72
2022/08/02 02:20:57;;;;;;;3.83;2.25;;;;;;;11.79;100.00;93380.47;2136984;27;20083;-72
2022/08/02 02:21:58;;;;;;;2.53;1.73;;;;;;;11.83;100.00;93389.97;2137632;27;20030;-72
2022/08/02 02:22:59;;;;;;;4.93;1.88;;;;;;;11.87;100.00;93383.78;2137374;27;20472;-72
2022/08/02 02:24:00;;;;;;;2.97;2.20;;;;;;;11.83;100.00;93381.94;2137539;27;20058;-72
2022/08/02 02:25:01;;;;;;;5.72;2.03;;;;;;;11.72;100.00;93383.28;2137092;27;20038;-72
2022/08/02 02:26:04;;;;;;;4.13;1.83;;;;;;;11.61;100.00;93380.84;2128186;27;20079;-72
2022/08/02 02:27:08;;;;;;;3.28;1.83;;;;;;;11.68;100.00;93377.28;2128782;27;20031;-73
2022/08/02 02:28:21;;;;;;;3.25;2.00;;;;;;;11.62;100.00;93374.31;2136832;27;20072;-72
2022/08/02 02:29:26;;;;;;;3.38;2.05;;;;;;;11.65;100.00;93378.09;2127756;27;20031;-74
2022/08/02 02:30:30;;;;;;;2.97;2.03;;;;;;;11.54;100.00;93376.41;2129918;27;20091;-72
2022/08/02 02:31:37;;;;;;;4.15;1.75;;;;;;;11.55;100.00;93375.25;2137456;27;20023;-72
2022/08/02 02:32:40;;;;;;;3.70;2.08;;;;;;;11.59;100.00;93370.56;2136596;27;20093;-72
2022/08/02 02:34:01;;;;;;;7.38;2.20;;;;;;;11.59;100.00;93367.16;2136967;27;20034;-72
2022/08/02 02:35:03;;;;;;;2.55;2.00;;;;;;;11.62;100.00;93374.31;2137179;27;20041;-72
2022/08/02 02:36:08;;;;;;;5.13;2.30;;;;;;;11.66;100.00;93369.66;2136976;27;20034;-72
2022/08/02 02:37:13;;;;;;;2.17;1.80;;;;;;;11.71;100.00;93371.09;2137318;27;20478;-75
2022/08/02 02:38:16;;;;;;;4.25;2.10;;;;;;;11.73;100.00;93374.88;2136645;27;20114;-72
2022/08/02 02:39:22;;;;;;;5.15;1.95;;;;;;;11.73;100.00;93374.13;2136690;27;20086;-72
2022/08/02 02:40:24;;;;;;;3.60;1.90;;;;;;;11.79;100.00;93375.13;2137121;27;20023;-72
2022/08/02 02:41:25;;;;;;;2.60;2.00;;;;;;;11.77;100.00;93377.47;2137237;27;20106;-71
2022/08/02 02:42:30;;;;;;;3.47;1.75;;;;;;;11.66;100.00;93374.25;2137026;27;20057;-71
2022/08/02 02:43:35;;;;;;;2.50;1.85;;;;;;;11.60;100.00;93371.31;2136376;27;20026;-74
2022/08/02 02:44:37;;;;;;;3.03;2.08;;;;;;;11.55;100.00;93379.84;2137268;27;20030;-71
2022/08/02 02:45:40;;;;;;;1.85;1.65;;;;;;;11.62;100.00;93374.31;2137103;27;20022;-70
2022/08/02 02:46:43;;;;;;;2.88;1.98;;;;;;;11.42;100.00;93371.69;2136646;27;20030;-70
2022/08/02 02:47:46;;;;;;;2.08;1.88;;;;;;;11.53;100.00;93377.56;2137375;27;20059;-70
2022/08/02 02:48:50;;;;;;;2.97;1.90;;;;;;;11.52;100.00;93378.75;2136834;27;20493;-70
2022/08/02 02:49:51;;;;;;;5.13;1.92;;;;;;;11.40;100.00;93368.66;2136658;27;20085;-73
2022/08/02 02:50:53;;;;;;;4.60;2.17;;;;;;;11.43;100.00;93372.44;2137407;27;20833;-73
2022/08/02 02:51:55;;;;;;;5.45;2.00;;;;;;;11.52;100.00;93369.97;2137204;27;20535;-74
2022/08/02 02:52:57;;;;;;;2.85;1.90;;;;;;;11.54;100.00;93370.28;2135968;27;20042;-73
2022/08/02 02:53:59;;;;;;;2.50;1.67;;;;;;;11.59;100.00;93364.47;2128182;27;20062;-70
2022/08/02 02:55:01;;;;;;;2.88;2.10;;;;;;;11.52;100.00;93373.38;2128054;27;20396;-70
2022/08/02 02:56:03;;;;;;;5.28;2.10;;;;;;;11.46;100.00;93369.72;2127689;27;20034;-70
2022/08/02 02:57:05;;;;;;;3.38;1.98;;;;;;;11.45;100.00;93370.84;2128277;27;20033;-71
2022/08/02 02:58:07;;;;;;;3.95;2.20;;;;;;;11.43;100.00;93370.53;2136428;27;20038;-70
2022/08/02 02:59:09;;;;;;;2.97;2.05;;;;;;;11.43;100.00;93365.19;2137351;27;20029;-71
2022/08/02 03:00:13;;;;;;;3.35;2.22;;;;;;;11.41;100.00;93364.81;2127834;27;20027;-70
2022/08/02 03:01:26;;;;;;;2.70;1.63;;;;;;;11.45;100.00;93365.50;2128424;27;20019;-71
2022/08/02 03:02:27;;;;;;;6.45;2.30;;;;;;;11.53;100.00;93368.78;2136910;27;20074;-74
2022/08/02 03:03:29;;;;;;;4.82;2.10;;;;;;;11.46;100.00;93371.63;2137095;27;20348;-73
2022/08/02 03:04:31;;;;;;;3.63;1.90;;;;;;;11.48;100.00;93364.69;2137399;27;20368;-72
2022/08/02 03:05:33;;;;;;;4.57;2.45;;;;;;;11.47;100.00;93370.47;2136477;27;20065;-73
2022/08/02 03:06:38;;;;;;;2.92;2.03;;;;;;;11.54;100.00;93363.00;2137190;27;20030;-73
2022/08/02 03:07:40;;;;;;;2.70;2.17;;;;;;;11.55;100.00;93369.13;2137110;27;20055;-73
2022/08/02 03:08:41;;;;;;;4.53;2.15;;;;;;;11.50;100.00;93362.34;2135961;27;20030;-72
2022/08/02 03:09:43;;;;;;;3.65;2.35;;;;;;;11.46;100.00;93361.69;2137731;27;20050;-73
2022/08/02 03:10:44;;;;;;;3.00;1.83;;;;;;;11.54;100.00;93364.94;2137327;27;20030;-73
2022/08/02 03:11:45;;;;;;;1.98;1.88;;;;;;;11.57;100.00;93361.44;2137228;27;20121;-74
2022/08/02 03:12:47;;;;;;;2.45;2.20;;;;;;;11.53;100.00;93361.50;2136789;27;20060;-74
2022/08/02 03:13:48;;;;;;;4.25;1.98;;;;;;;11.57;100.00;93366.78;2136466;27;20027;-74
2022/08/02 03:14:49;;;;;;;4.82;2.10;;;;;;;11.58;100.00;93361.00;2137352;27;20071;-74
2022/08/02 03:15:54;;;;;;;4.82;1.85;;;;;;;11.58;100.00;93363.69;2136652;27;20106;-74
2022/08/02 03:16:55;;;;;;;4.18;2.28;;;;;;;11.65;100.00;93354.00;2136638;27;20037;-73
2022/08/02 03:17:56;;;;;;;2.67;2.05;;;;;;;11.70;100.00;93354.25;2136752;27;20058;-73
2022/08/02 03:19:02;;;;;;;2.97;2.30;;;;;;;11.60;100.00;93356.00;2136728;27;20026;-73
2022/08/02 03:20:07;;;;;;;5.70;2.22;;;;;;;11.58;100.00;93352.22;2136350;27;20046;-74
2022/08/02 03:21:11;;;;;;;5.80;2.20;;;;;;;11.64;100.00;93358.63;2136347;27;20417;-74
2022/08/02 03:22:12;;;;;;;2.33;1.90;;;;;;;11.66;100.00;93358.19;2136491;27;20033;-74
2022/08/02 03:23:13;;;;;;;2.30;2.10;;;;;;;11.71;100.00;93355.75;2127752;27;20039;-74
2022/08/02 03:24:14;;;;;;;6.53;2.63;;;;;;;11.71;100.00;93349.66;2127950;27;20019;-73
2022/08/02 03:25:16;;;;;;;7.13;2.30;;;;;;;11.78;100.00;93352.19;2136757;27;20022;-73
2022/08/02 03:26:17;;;;;;;3.33;2.60;;;;;;;11.73;100.00;93356.13;2129759;27;20034;-73
2022/08/02 03:27:18;;;;;;;4.60;2.88;;;;;;;11.72;100.00;93356.50;2131308;27;20034;-73
2022/08/02 03:28:19;;;;;;;3.10;2.55;;;;;;;11.81;100.00;93352.13;2131590;27;20482;-74
2022/08/02 03:29:20;;;;;;;3.92;2.13;;;;;;;11.79;100.00;93356.38;2131153;27;20031;-73
2022/08/02 03:30:25;;;;;;;7.47;2.83;;;;;;;11.82;100.00;93352.88;2131355;27;20030;-73
2022/08/02 03:31:26;;;;;;;3.63;2.60;;;;;;;11.79;100.00;93359.78;2121409;27;20042;-73
2022/08/02 03:32:27;;;;;;;3.53;2.03;;;;;;;11.81;100.00;93357.47;2122058;27;20031;-74
2022/08/02 03:33:30;;;;;;;4.85;2.55;;;;;;;11.78;100.00;93362.91;2131406;27;20823;-74
2022/08/02 03:34:31;;;;;;;3.67;2.70;;;;;;;11.75;100.00;93355.69;2130897;27;20026;-74
2022/08/02 03:35:33;;;;;;;4.15;2.38;;;;;;;11.77;100.00;93356.78;2130841;27;20520;-74
2022/08/02 03:36:34;;;;;;;4.05;2.30;;;;;;;11.75;100.00;93364.47;2131180;27;20029;-73
2022/08/02 03:37:36;;;;;;;3.90;2.30;;;;;;;11.62;100.00;93358.25;2131066;27;20054;-73
2022/08/02 03:38:38;;;;;;;3.10;2.08;;;;;;;11.62;100.00;93368.22;2130938;27;20046;-73
2022/08/02 03:39:39;;;;;;;4.90;2.15;;;;;;;11.68;100.00;93359.28;2131166;27;20035;-74
2022/08/02 03:40:41;;;;;;;3.38;2.10;;;;;;;11.64;100.00;93363.22;2130979;27;20019;-73
2022/08/02 03:41:43;;;;;;;5.65;2.10;;;;;;;11.64;100.00;93360.53;2130709;27;20044;-73
2022/08/02 03:42:44;;;;;;;7.25;2.92;;;;;;;11.67;100.00;93362.38;2130929;27;20027;-74
2022/08/02 03:43:47;;;;;;;2.30;2.10;;;;;;;11.72;100.00;93362.66;2131428;27;20027;-73
2022/08/02 03:44:49;;;;;;;3.35;2.00;;;;;;;11.83;100.00;93367.78;2130553;27;20060;-72
2022/08/02 03:45:50;;;;;;;2.85;2.30;;;;;;;11.84;100.00;93359.31;2130801;27;20176;-73
2022/08/02 03:46:52;;;;;;;7.28;3.22;;;;;;;11.75;100.00;93372.50;2130995;27;20138;-74
2022/08/02 03:47:53;;;;;;;3.90;2.00;;;;;;;11.71;100.00;93361.13;2131111;27;20034;-74
2022/08/02 03:48:55;;;;;;;2.88;2.30;;;;;;;11.71;100.00;93369.16;2131532;27;20448;-72
2022/08/02 03:49:56;;;;;;;4.53;2.25;;;;;;;11.78;100.00;93365.56;2131425;27;20034;-73
2022/08/02 03:50:58;;;;;;;7.43;2.30;;;;;;;11.73;100.00;93366.81;2130527;27;20380;-73
2022/08/02 03:52:00;;;;;;;3.58;2.03;;;;;;;11.77;100.00;93361.41;2131428;27;20030;-73
2022/08/02 03:53:02;;;;;;;2.55;2.35;;;;;;;11.77;100.00;93362.16;2130501;27;20046;-74
2022/08/02 03:54:03;;;;;;;3.13;2.03;;;;;;;11.77;100.00;93361.41;2131373;27;20356;-74
2022/08/02 03:55:04;;;;;;;3.60;2.13;;;;;;;11.84;100.00;93366.59;2130975;27;20027;-73
2022/08/02 03:56:06;;;;;;;4.25;2.20;;;;;;;11.83;100.00;93357.81;2130859;27;20030;-74
2022/08/02 03:57:07;;;;;;;4.25;2.10;;;;;;;11.89;100.00;93363.44;2130641;27;20065;-74
2022/08/02 03:58:08;;;;;;;2.83;2.20;;;;;;;11.87;100.00;93363.09;2131035;27;20087;-72
2022/08/02 03:59:12;;;;;;;3.88;2.38;;;;;;;11.84;100.00;93361.25;2121814;27;20118;-73
2022/08/02 04:00:17;;;;;;;7.32;2.83;;;;;;;11.82;100.00;93355.53;2122044;27;20473;-73
2022/08/02 04:01:18;;;;;;;4.43;2.80;;;;;;;11.80;100.00;93360.53;2130473;27;20034;-73
2022/08/02 04:02:19;;;;;;;4.88;2.50;;;;;;;11.86;100.00;93360.84;2131301;27;20046;-73
2022/08/02 04:03:20;;;;;;;3.47;2.40;;;;;;;11.95;100.00;93356.41;2130579;27;20038;-73
2022/08/02 04:04:22;;;;;;;3.28;2.17;;;;;;;11.98;100.00;93360.16;2130708;27;20026;-73
2022/08/02 04:05:23;;;;;;;5.32;2.33;;;;;;;12.03;100.00;93357.00;2131131;27;20027;-73
2022/08/02 04:06:24;;;;;;;5.43;2.40;;;;;;;11.98;100.00;93360.91;2130640;27;20151;-74
2022/08/02 04:07:25;;;;;;;3.67;2.35;;;;;;;12.01;100.00;93354.72;2130783;27;20026;-74
2022/08/02 04:08:26;;;;;;;3.78;2.53;;;;;;;11.94;100.00;93364.84;2131138;27;20042;-74
2022/08/02 04:09:27;;;;;;;3.95;2.25;;;;;;;11.97;100.00;93359.41;2130398;27;20436;-74
2022/08/02 04:10:28;;;;;;;2.30;2.10;;;;;;;11.95;100.00;93364.44;2131075;27;20019;-73
2022/08/02 04:11:32;;;;;;;3.17;2.53;;;;;;;11.95;100.00;93366.38;2130521;27;20091;-73
2022/08/02 04:12:32;;;;;;;2.25;1.80;;;;;;;12.02;100.00;93374.25;2130002;27;20087;-74
2022/08/02 04:13:35;;;;;;;2.80;2.13;;;;;;;12.07;100.00;93360.34;2131179;27;20536;-73
2022/08/02 04:14:37;;;;;;;3.25;2.20;;;;;;;12.10;100.00;93364.88;2129739;27;20162;-73
2022/08/02 04:15:38;;;;;;;3.00;2.38;;;;;;;12.05;100.00;93362.69;2131081;27;20363;-74
2022/08/02 04:17:04;;;;;;;2.63;2.33;;;;;;;12.04;100.00;93358.50;2130652;27;20109;-73
2022/08/02 04:18:07;;;;;;;3.08;1.92;;;;;;;12.10;100.00;93364.88;2118765;27;20066;-73
2022/08/02 04:19:13;;;;;;;3.28;2.17;;;;;;;12.16;100.00;93365.09;2130344;27;20058;-74
2022/08/02 04:20:19;;;;;;;2.60;2.40;;;;;;;12.08;100.00;93351.91;2130788;27;20756;-73
2022/08/02 04:21:23;;;;;;;3.33;2.00;;;;;;;12.06;100.00;93356.91;2130398;27;20475;-74
2022/08/02 04:22:32;;;;;;;2.83;2.50;;;;;;;12.02;100.00;93361.59;2130916;27;20023;-74
2022/08/02 04:23:36;;;;;;;5.88;2.58;;;;;;;12.12;100.00;93367.16;2130480;27;20110;-75
2022/08/02 04:24:48;;;;;;;2.83;2.33;;;;;;;12.17;100.00;93358.59;2130118;27;20476;-75
2022/08/02 04:25:50;;;;;;;3.13;2.17;;;;;;;12.21;100.00;93357.34;2130313;27;20484;-74
2022/08/02 04:26:56;;;;;;;2.38;2.17;;;;;;;12.21;100.00;93360.03;2130914;27;20037;-75
2022/08/02 04:27:59;;;;;;;4.72;2.13;;;;;;;12.23;100.00;93356.91;2125439;27;20368;-75
2022/08/02 04:29:01;;;;;;;6.00;2.67;;;;;;;12.23;100.00;93357.66;2126002;27;20037;-74
2022/08/02 04:30:04;;;;;;;3.15;2.42;;;;;;;12.27;100.00;93357.56;2130400;27;20125;-74
2022/08/02 04:31:05;;;;;;;2.38;2.00;;;;;;;12.27;100.00;93361.00;2128278;27;20501;-73
2022/08/02 04:32:07;;;;;;;3.47;2.22;;;;;;;12.26;100.00;93354.16;2125262;27;20440;-74
2022/08/02 04:33:09;;;;;;;2.28;2.08;;;;;;;12.22;100.00;93363.44;2126063;27;20118;-74
2022/08/02 04:34:10;;;;;;;2.55;2.35;;;;;;;12.21;100.00;93361.94;2126374;27;20507;-74
2022/08/02 04:35:11;;;;;;;2.60;2.40;;;;;;;12.27;100.00;93370.97;2128393;27;20035;-74
2022/08/02 04:36:13;;;;;;;2.90;2.47;;;;;;;12.33;100.00;93369.28;2127646;27;20038;-74
2022/08/02 04:37:14;;;;;;;4.18;2.33;;;;;;;12.36;100.00;93363.09;2125429;27;20465;-75
2022/08/02 04:38:16;;;;;;;5.93;2.65;;;;;;;12.39;100.00;93370.31;2127192;27;20106;-74
2022/08/02 04:39:18;;;;;;;4.05;2.33;;;;;;;12.45;100.00;93368.63;2127796;27;20465;-72
2022/08/02 04:40:19;;;;;;;3.63;2.20;;;;;;;12.42;100.00;93372.13;2128672;27;20026;-72
2022/08/02 04:41:20;;;;;;;4.93;2.70;;;;;;;12.43;100.00;93373.66;2128564;27;20035;-75
2022/08/02 04:42:22;;;;;;;2.88;2.63;;;;;;;12.49;100.00;93366.59;2128302;27;20054;-75
2022/08/02 04:43:23;;;;;;;2.80;2.47;;;;;;;12.50;100.00;93373.47;2127243;27;20023;-74
2022/08/02 04:44:24;;;;;;;5.63;2.85;;;;;;;12.52;100.00;93371.13;2119410;27;20936;-74
2022/08/02 04:45:28;;;;;;;3.67;2.90;;;;;;;12.58;100.00;93369.44;2119198;27;20052;-74
2022/08/02 04:46:30;;;;;;;4.35;2.40;;;;;;;12.59;100.00;93381.66;2127146;27;20023;-74
2022/08/02 04:47:32;;;;;;;4.82;2.67;;;;;;;12.67;100.00;93379.56;2127710;27;20141;-74
2022/08/02 04:48:33;;;;;;;3.35;2.50;;;;;;;12.77;100.00;93378.53;2127479;27;20033;-74
2022/08/02 04:49:34;;;;;;;7.38;2.70;;;;;;;12.88;100.00;93378.25;2127297;27;20134;-74
2022/08/02 04:50:54;;;;;;;4.07;2.92;;;;;;;12.94;100.00;93381.91;2127979;27;20106;-74
2022/08/02 04:52:14;;;;;;;4.60;2.90;;;;;;;13.01;100.00;93381.00;2128544;27;20054;-73
2022/08/02 04:53:35;;;;;;;5.07;2.75;;;;;;;13.10;100.00;93379.19;2128347;27;20117;-74
2022/08/02 04:54:56;;;;;;;3.33;2.97;;;;;;;13.10;100.00;93375.75;2127941;27;20041;-74
2022/08/02 04:56:16;;;;;;;6.38;3.00;;;;;;;13.13;100.00;93384.91;2127158;27;20045;-75
2022/08/02 04:58:56;;;;;;;3.08;2.78;;;;;;;13.33;100.00;93378.19;2128536;27;20034;-74
2022/08/02 05:00:13;;;;;;;6.00;2.50;;;;;;;13.39;100.00;93386.50;2125626;27;20125;-73
2022/08/02 05:01:14;;;;;;;5.03;2.67;;;;;;;13.42;100.00;93387.56;2127593;27;20083;-74